Trout Lake, Michigan
Current Conditions -  °F | °C
As of 8:54 PM on Monday 24 Nov 2014 (Local Time) from KERY Reporting Station
Light Snow Light Snow  
Wind Chill: 21°   Ceiling: 800
Heat Index: 29°   Visibility: 2mi
Dew Point: 28°   Wind: 8mph
Humidity: 96%   Direction: 340°NNW
Pressure: 29.28"   Gusts: NA
Location:  46.19°N, 85.02°W
Report Text: KERY 250154Z AUTO 34007KT 2SM -SN OVC008 M02/M02 A2928 RMK AO2 T10161022
Loading
Personal Weather Stations






























Interactive Weather Map New forecast layout! Learn more

10-Day Weather Forecast

Advertisements
Track Severe Weather on mobile